createdAt,value
2019-04-30T00:00:19.585Z,100247.47
2019-04-30T00:02:38.349Z,100241.28
2019-04-30T00:04:42.433Z,100246.20
2019-04-30T00:06:50.125Z,100246.41
2019-04-30T00:08:57.843Z,100248.27
2019-04-30T00:11:05.453Z,100253.66
2019-04-30T00:13:17.768Z,100260.74
2019-04-30T00:15:22.577Z,100259.33
2019-04-30T00:17:30.014Z,100253.09
2019-04-30T00:19:37.666Z,100259.80
2019-04-30T00:21:48.283Z,100257.06
2019-04-30T00:23:56.150Z,100247.98
2019-04-30T00:26:08.720Z,100247.89
2019-04-30T00:28:15.149Z,100258.38
2019-04-30T00:30:25.112Z,100257.23
2019-04-30T00:32:32.501Z,100254.59
2019-04-30T00:34:40.204Z,100259.48
2019-04-30T00:36:47.993Z,100259.11
2019-04-30T00:38:55.712Z,100255.71
2019-04-30T00:41:06.787Z,100255.75
2019-04-30T00:43:12.740Z,100257.59
2019-04-30T00:45:20.336Z,100252.66
2019-04-30T00:47:28.188Z,100260.70
2019-04-30T00:49:36.026Z,100255.31
2019-04-30T00:51:45.330Z,100255.51
2019-04-30T00:53:53.256Z,100256.74
2019-04-30T00:56:01.059Z,100249.27
2019-04-30T00:58:08.828Z,100252.38
2019-04-30T01:00:25.218Z,100258.91
2019-04-30T01:02:45.581Z,100255.42
2019-04-30T01:05:00.172Z,100255.58
2019-04-30T01:07:08.489Z,100254.33
2019-04-30T01:09:15.580Z,100254.81
2019-04-30T01:11:25.020Z,100254.75
2019-04-30T01:13:32.877Z,100253.06
2019-04-30T01:15:43.974Z,100253.02
2019-04-30T01:17:50.938Z,100263.78
2019-04-30T01:19:59.268Z,100257.04
2019-04-30T01:22:08.957Z,100262.06
2019-04-30T01:24:16.709Z,100260.38
2019-04-30T01:26:29.652Z,100253.92
2019-04-30T01:28:34.317Z,100267.20
2019-04-30T01:30:42.434Z,100263.52
2019-04-30T01:32:56.480Z,100261.55
2019-04-30T01:34:59.596Z,100256.90
2019-04-30T01:37:08.738Z,100257.17
2019-04-30T01:39:16.732Z,100262.05
2019-04-30T01:41:27.309Z,100262.11
2019-04-30T01:43:34.719Z,100266.12
2019-04-30T01:45:42.489Z,100261.95
2019-04-30T01:47:50.113Z,100261.64
2019-04-30T01:50:00.980Z,100266.28
2019-04-30T01:52:07.270Z,100263.37
2019-04-30T01:54:20.815Z,100264.13
2019-04-30T01:56:41.851Z,100262.05
2019-04-30T01:58:59.393Z,100259.20
2019-04-30T02:01:12.550Z,100266.77
2019-04-30T02:03:20.164Z,100270.09
2019-04-30T02:05:28.730Z,100267.68
2019-04-30T02:07:36.567Z,100263.15
2019-04-30T02:09:44.363Z,100264.07
2019-04-30T02:11:52.149Z,100264.34
2019-04-30T02:13:59.853Z,100267.53
2019-04-30T02:16:08.651Z,100268.20
2019-04-30T02:18:16.450Z,100271.95
2019-04-30T02:20:24.071Z,100269.58
2019-04-30T02:22:31.841Z,100267.70
2019-04-30T02:24:39.556Z,100269.97
2019-04-30T02:26:48.490Z,100267.04
2019-04-30T02:28:56.450Z,100269.20
2019-04-30T02:31:04.254Z,100269.67
2019-04-30T02:33:12.080Z,100273.50
2019-04-30T02:35:44.437Z,100265.59
2019-04-30T02:38:15.312Z,100258.84
2019-04-30T02:40:23.008Z,100264.88
2019-04-30T02:42:31.861Z,100265.13
2019-04-30T02:44:42.416Z,100264.40
2019-04-30T02:46:52.299Z,100270.50
2019-04-30T02:49:01.709Z,100270.77
2019-04-30T02:51:13.365Z,100263.48
2019-04-30T02:54:05.440Z,100273.03
2019-04-30T02:56:13.060Z,100272.21
2019-04-30T02:58:21.113Z,100269.42
2019-04-30T03:00:32.547Z,100267.63
2019-04-30T03:02:39.341Z,100269.33
2019-04-30T03:04:50.121Z,100271.97
2019-04-30T03:06:59.552Z,100270.59
2019-04-30T03:09:09.978Z,100277.03
2019-04-30T03:11:16.877Z,100272.30
2019-04-30T03:13:24.799Z,100276.02
2019-04-30T03:15:32.547Z,100275.98
2019-04-30T03:17:52.244Z,100282.35
2019-04-30T03:20:31.379Z,100279.12
2019-04-30T03:22:30.093Z,100286.89
2019-04-30T03:24:39.799Z,100280.59
2019-04-30T03:26:49.687Z,100278.69
2019-04-30T03:28:56.551Z,100280.41
2019-04-30T03:31:04.980Z,100276.59
2019-04-30T03:33:13.558Z,100283.14
2019-04-30T03:35:22.788Z,100285.92
2019-04-30T03:37:30.691Z,100284.78
2019-04-30T03:39:39.934Z,100288.19
2019-04-30T03:41:50.221Z,100288.56
2019-04-30T03:44:13.842Z,100286.88
2019-04-30T03:46:09.894Z,100290.46
2019-04-30T03:48:15.688Z,100288.81
2019-04-30T03:50:23.443Z,100290.61
2019-04-30T03:52:31.123Z,100286.83
2019-04-30T03:54:40.840Z,100282.25
2019-04-30T03:56:50.239Z,100282.10
2019-04-30T03:59:00.146Z,100284.73
2019-04-30T04:01:29.383Z,100290.05
2019-04-30T04:03:42.224Z,100283.09
2019-04-30T04:06:09.389Z,100288.04
2019-04-30T04:08:26.032Z,100285.26
2019-04-30T04:10:55.447Z,100285.73
2019-04-30T04:13:03.173Z,100282.45
2019-04-30T04:15:11.066Z,100280.98
2019-04-30T04:17:20.280Z,100281.05
2019-04-30T04:19:29.215Z,100278.79
2019-04-30T04:21:39.177Z,100286.12
2019-04-30T04:23:49.171Z,100282.31
2019-04-30T04:25:55.677Z,100283.81
2019-04-30T04:28:03.335Z,100279.38
2019-04-30T04:30:11.309Z,100286.97
2019-04-30T04:32:23.512Z,100280.16
2019-04-30T04:34:30.261Z,100280.44
2019-04-30T04:36:39.969Z,100286.27
2019-04-30T04:38:50.411Z,100282.52
2019-04-30T04:41:02.671Z,100289.33
2019-04-30T04:43:06.108Z,100291.00
2019-04-30T04:45:14.035Z,100290.95
2019-04-30T04:47:21.770Z,100291.82
2019-04-30T04:49:30.537Z,100287.50
2019-04-30T04:51:42.182Z,100294.42
2019-04-30T04:53:50.022Z,100287.70
2019-04-30T04:55:59.732Z,100298.52
2019-04-30T04:58:06.773Z,100298.73
2019-04-30T05:00:14.633Z,100304.02
2019-04-30T05:02:49.568Z,100300.10
2019-04-30T05:04:59.773Z,100297.29
2019-04-30T05:07:06.417Z,100300.52
2019-04-30T05:09:14.207Z,100306.36
2019-04-30T05:11:21.937Z,100295.05
2019-04-30T05:13:29.910Z,100313.73
2019-04-30T05:15:39.014Z,100305.23
2019-04-30T05:17:46.863Z,100311.41
2019-04-30T05:19:54.425Z,100310.92
2019-04-30T05:22:02.148Z,100308.35
2019-04-30T05:24:09.882Z,100309.20
2019-04-30T05:26:19.070Z,100309.20
2019-04-30T05:28:26.735Z,100310.52
2019-04-30T05:30:34.493Z,100309.00
2019-04-30T05:32:42.173Z,100311.24
2019-04-30T05:34:49.779Z,100320.33
2019-04-30T05:36:58.486Z,100315.61
2019-04-30T05:39:08.783Z,100318.39
2019-04-30T05:41:16.611Z,100312.16
2019-04-30T05:43:24.197Z,100322.36
2019-04-30T05:45:33.731Z,100317.12
2019-04-30T05:47:41.601Z,100323.02
2019-04-30T05:49:49.284Z,100319.69
2019-04-30T05:51:56.996Z,100320.53
2019-04-30T05:54:04.664Z,100322.56
2019-04-30T05:56:12.496Z,100319.34
2019-04-30T05:58:20.235Z,100322.26
2019-04-30T06:00:30.295Z,100319.04
2019-04-30T06:02:39.724Z,100320.80
2019-04-30T06:04:48.957Z,100320.75
2019-04-30T06:06:56.463Z,100329.41
2019-04-30T06:09:14.805Z,100325.71
2019-04-30T06:11:36.607Z,100324.24
2019-04-30T06:13:59.325Z,100321.02
2019-04-30T06:16:13.027Z,100328.05
2019-04-30T06:18:20.739Z,100319.88
2019-04-30T06:20:28.874Z,100313.59
2019-04-30T06:22:38.495Z,100320.88
2019-04-30T06:24:46.032Z,100320.13
2019-04-30T06:26:53.845Z,100320.64
2019-04-30T06:29:02.108Z,100313.34
2019-04-30T06:31:09.982Z,100314.61
2019-04-30T06:33:19.285Z,100315.28
2019-04-30T06:35:29.234Z,100319.25
2019-04-30T06:37:38.728Z,100312.20
2019-04-30T06:39:46.392Z,100313.08
2019-04-30T06:42:04.280Z,100312.41
2019-04-30T06:44:04.138Z,100317.61
2019-04-30T06:46:11.885Z,100313.24
2019-04-30T06:48:20.943Z,100312.59
2019-04-30T06:50:29.301Z,100317.94
2019-04-30T06:52:38.884Z,100315.05
2019-04-30T06:54:46.882Z,100318.37
2019-04-30T06:56:54.499Z,100318.77
2019-04-30T06:59:02.225Z,100309.72
2019-04-30T07:01:10.032Z,100315.71
2019-04-30T07:03:19.139Z,100310.23
2019-04-30T07:05:28.616Z,100309.13
2019-04-30T07:07:41.198Z,100317.02
2019-04-30T07:10:20.319Z,100316.73
2019-04-30T07:12:48.974Z,100316.30
2019-04-30T07:14:59.066Z,100313.84
2019-04-30T07:17:06.456Z,100306.77
2019-04-30T07:19:14.001Z,100301.52
2019-04-30T07:21:21.837Z,100302.64
2019-04-30T07:23:29.545Z,100297.83
2019-04-30T07:25:39.112Z,100299.91
2019-04-30T07:27:46.997Z,100306.58
2019-04-30T07:29:54.646Z,100306.86
2019-04-30T07:32:02.229Z,100308.43
2019-04-30T07:34:09.882Z,100310.36
2019-04-30T07:36:19.380Z,100301.09
2019-04-30T07:38:29.390Z,100300.98
2019-04-30T07:40:36.358Z,100307.14
2019-04-30T07:42:45.152Z,100300.31
2019-04-30T07:44:52.958Z,100306.27
2019-04-30T07:47:02.056Z,100302.77
2019-04-30T07:49:10.195Z,100306.53
2019-04-30T07:51:21.178Z,100302.17
2019-04-30T07:53:27.468Z,100301.70
2019-04-30T07:55:35.118Z,100297.58
2019-04-30T07:57:42.817Z,100294.92
2019-04-30T07:59:50.523Z,100297.52
2019-04-30T08:02:07.638Z,100300.52
2019-04-30T08:04:13.811Z,100289.66
2019-04-30T08:06:22.466Z,100285.91
2019-04-30T08:08:30.590Z,100298.23
2019-04-30T08:10:39.400Z,100297.51
2019-04-30T08:12:49.908Z,100298.73
2019-04-30T08:14:59.319Z,100293.89
2019-04-30T08:17:08.752Z,100298.11
2019-04-30T08:19:16.816Z,100302.96
2019-04-30T08:21:24.682Z,100293.66
2019-04-30T08:23:36.935Z,100300.20
2019-04-30T08:25:42.257Z,100302.72
2019-04-30T08:27:50.094Z,100294.25
2019-04-30T08:29:59.219Z,100294.73
2019-04-30T08:32:09.022Z,100305.40
2019-04-30T08:34:16.786Z,100306.37
2019-04-30T08:36:24.488Z,100309.03
2019-04-30T08:38:32.144Z,100307.44
2019-04-30T08:40:52.810Z,100300.80
2019-04-30T08:42:49.695Z,100300.91
2019-04-30T08:44:58.585Z,100301.89
2019-04-30T08:47:06.218Z,100297.89
2019-04-30T08:49:14.302Z,100286.97
2019-04-30T08:51:22.302Z,100293.66
2019-04-30T08:53:33.467Z,100297.64
2019-04-30T08:55:39.457Z,100298.50
2019-04-30T08:57:47.210Z,100293.30
2019-04-30T08:59:54.951Z,100293.64
2019-04-30T09:02:12.841Z,100290.99
2019-04-30T09:04:11.994Z,100295.94
2019-04-30T09:06:25.466Z,100301.22
2019-04-30T09:08:33.455Z,100290.27
2019-04-30T09:10:41.107Z,100284.20
2019-04-30T09:12:49.499Z,100291.75
2019-04-30T09:14:59.128Z,100292.92
2019-04-30T09:17:09.170Z,100294.26
2019-04-30T09:19:16.363Z,100286.69
2019-04-30T09:21:23.971Z,100283.30
2019-04-30T09:23:43.355Z,100294.25
2019-04-30T09:25:40.789Z,100295.38
2019-04-30T09:27:48.909Z,100296.16
2019-04-30T09:29:58.764Z,100286.34
2019-04-30T09:32:06.062Z,100288.77
2019-04-30T09:34:17.747Z,100283.41
2019-04-30T09:36:23.056Z,100282.59
2019-04-30T09:38:30.718Z,100278.17
2019-04-30T09:40:41.566Z,100282.97
2019-04-30T09:42:48.756Z,100272.42
2019-04-30T09:44:57.790Z,100274.19
2019-04-30T09:47:05.838Z,100271.92
2019-04-30T09:49:13.325Z,100273.32
2019-04-30T09:51:24.095Z,100278.20
2019-04-30T09:53:31.060Z,100270.38
2019-04-30T09:55:40.538Z,100269.75
2019-04-30T09:57:48.923Z,100271.15
2019-04-30T09:59:56.753Z,100258.89
2019-04-30T10:02:04.205Z,100265.53
2019-04-30T10:04:12.401Z,100250.47
2019-04-30T10:06:20.579Z,100263.41
2019-04-30T10:08:30.728Z,100254.22
2019-04-30T10:10:44.588Z,100256.39
2019-04-30T10:12:52.163Z,100259.00
2019-04-30T10:14:59.938Z,100257.53
2019-04-30T10:17:13.965Z,100256.00
2019-04-30T10:19:21.780Z,100248.75
2019-04-30T10:21:29.389Z,100247.63
2019-04-30T10:23:36.918Z,100247.53
2019-04-30T10:25:44.824Z,100250.75
2019-04-30T10:27:53.086Z,100254.70
2019-04-30T10:30:01.414Z,100247.52
2019-04-30T10:32:09.477Z,100250.16
2019-04-30T10:34:18.228Z,100253.95
2019-04-30T10:36:26.073Z,100249.20
2019-04-30T10:38:33.985Z,100242.59
2019-04-30T10:40:41.785Z,100254.20
2019-04-30T10:42:49.363Z,100251.02
2019-04-30T10:44:59.976Z,100249.57
2019-04-30T10:47:06.233Z,100244.89
2019-04-30T10:49:14.246Z,100240.60
2019-04-30T10:51:21.838Z,100245.00
2019-04-30T10:53:29.674Z,100241.08
2019-04-30T10:55:38.763Z,100242.42
2019-04-30T10:57:46.536Z,100241.30
2019-04-30T10:59:54.103Z,100246.34
2019-04-30T11:02:01.769Z,100235.28
2019-04-30T11:04:10.377Z,100231.48
2019-04-30T11:06:19.170Z,100231.91
2019-04-30T11:08:26.781Z,100233.67
2019-04-30T11:10:35.060Z,100228.41
2019-04-30T11:12:42.660Z,100234.45
2019-04-30T11:14:50.343Z,100238.01
2019-04-30T11:16:59.925Z,100229.89
2019-04-30T11:19:09.311Z,100229.38
2019-04-30T11:21:17.667Z,100234.09
2019-04-30T11:23:26.518Z,100228.78
2019-04-30T11:25:34.977Z,100245.13
2019-04-30T11:27:43.746Z,100224.96
2019-04-30T11:29:51.804Z,100230.55
2019-04-30T11:32:05.299Z,100232.23
2019-04-30T11:34:13.215Z,100222.20
2019-04-30T11:36:20.856Z,100218.48
2019-04-30T11:38:29.943Z,100211.89
2019-04-30T11:40:39.889Z,100225.52
2019-04-30T11:42:47.392Z,100227.48
2019-04-30T11:44:55.073Z,100221.80
2019-04-30T11:47:33.483Z,100227.55
2019-04-30T11:49:41.162Z,100224.80
2019-04-30T11:51:48.841Z,100227.85
2019-04-30T11:53:56.561Z,100223.94
2019-04-30T11:56:05.187Z,100220.77
2019-04-30T11:58:21.343Z,100213.00
2019-04-30T12:00:29.660Z,100217.41
2019-04-30T12:02:41.392Z,100201.78
2019-04-30T12:04:49.523Z,100197.77
2019-04-30T12:06:58.949Z,100200.13
2019-04-30T12:09:28.510Z,100202.84
2019-04-30T12:11:37.248Z,100198.45
2019-04-30T12:13:44.849Z,100201.33
2019-04-30T12:15:52.998Z,100206.95
2019-04-30T12:18:00.569Z,100207.92
2019-04-30T12:20:08.826Z,100197.80
2019-04-30T12:22:16.339Z,100201.56
2019-04-30T12:24:24.357Z,100193.63
2019-04-30T12:26:32.156Z,100199.81
2019-04-30T12:28:40.162Z,100195.47
2019-04-30T12:30:48.939Z,100193.50
2019-04-30T12:32:56.827Z,100185.95
2019-04-30T12:35:04.975Z,100187.36
2019-04-30T12:37:12.682Z,100184.62
2019-04-30T12:39:20.535Z,100186.25
2019-04-30T12:41:28.347Z,100176.92
2019-04-30T12:43:36.372Z,100181.50
2019-04-30T12:45:43.888Z,100175.34
2019-04-30T12:47:55.803Z,100182.27
2019-04-30T12:50:21.717Z,100180.30
2019-04-30T12:52:34.414Z,100172.16
2019-04-30T12:54:50.586Z,100171.81
2019-04-30T12:57:11.242Z,100173.08
2019-04-30T12:59:19.033Z,100170.02
2019-04-30T13:01:31.681Z,100156.52
2019-04-30T13:03:36.509Z,100155.91
2019-04-30T13:05:44.374Z,100156.11
2019-04-30T13:07:52.797Z,100167.73
2019-04-30T13:10:02.160Z,100173.09
2019-04-30T13:12:11.268Z,100160.85
2019-04-30T13:14:20.219Z,100166.77
2019-04-30T13:16:29.216Z,100168.58
2019-04-30T13:18:36.925Z,100166.23
2019-04-30T13:20:44.872Z,100162.16
2019-04-30T13:22:52.728Z,100157.44
2019-04-30T13:25:00.464Z,100159.34
2019-04-30T13:27:09.462Z,100159.11
2019-04-30T13:29:21.748Z,100157.45
2019-04-30T13:31:29.532Z,100154.16
2019-04-30T13:33:42.793Z,100158.20
2019-04-30T13:35:50.857Z,100152.89
2019-04-30T13:38:03.729Z,100151.68
2019-04-30T13:40:36.717Z,100151.25
2019-04-30T13:42:48.825Z,100149.98
2019-04-30T13:44:56.457Z,100150.16
2019-04-30T13:47:04.245Z,100147.72
2019-04-30T13:49:11.952Z,100153.70
2019-04-30T13:51:19.614Z,100142.95
2019-04-30T13:53:28.436Z,100143.51
2019-04-30T13:55:43.704Z,100148.16
2019-04-30T13:57:45.262Z,100139.44
2019-04-30T13:59:52.964Z,100137.98
2019-04-30T14:02:00.848Z,100141.18
2019-04-30T14:04:27.363Z,100136.47
2019-04-30T14:06:38.833Z,100142.26
2019-04-30T14:08:50.151Z,100132.91
2019-04-30T14:10:59.215Z,100125.95
2019-04-30T14:13:08.921Z,100127.67
2019-04-30T14:15:19.093Z,100129.88
2019-04-30T14:17:26.763Z,100130.65
2019-04-30T14:19:34.381Z,100130.38
2019-04-30T14:21:42.222Z,100125.70
2019-04-30T14:23:49.800Z,100128.65
2019-04-30T14:26:00.887Z,100133.61
2019-04-30T14:28:08.937Z,100129.66
2019-04-30T14:30:19.181Z,100121.38
2019-04-30T14:32:28.541Z,100127.29
2019-04-30T14:34:36.363Z,100129.77
2019-04-30T14:36:44.054Z,100128.24
2019-04-30T14:38:51.771Z,100126.34
2019-04-30T14:41:00.687Z,100127.67
2019-04-30T14:43:19.654Z,100127.54
2019-04-30T14:45:31.616Z,100117.69
2019-04-30T14:47:47.899Z,100122.36
2019-04-30T14:50:14.811Z,100113.84
2019-04-30T14:52:23.164Z,100114.46
2019-04-30T14:54:50.929Z,100110.75
2019-04-30T14:57:03.414Z,100120.05
2019-04-30T14:59:39.236Z,100115.97
2019-04-30T15:02:00.945Z,100113.11
2019-04-30T15:04:08.599Z,100110.40
2019-04-30T15:06:16.288Z,100110.56
2019-04-30T15:08:24.101Z,100109.56
2019-04-30T15:10:31.846Z,100105.83
2019-04-30T15:12:39.538Z,100116.58
2019-04-30T15:14:49.158Z,100106.45
2019-04-30T15:16:56.715Z,100102.31
2019-04-30T15:19:04.562Z,100110.39
2019-04-30T15:21:12.326Z,100101.45
2019-04-30T15:23:56.371Z,100098.64
2019-04-30T15:25:58.638Z,100105.25
2019-04-30T15:28:06.538Z,100104.84
2019-04-30T15:30:21.733Z,100113.59
2019-04-30T15:32:28.477Z,100111.98
2019-04-30T15:34:35.960Z,100113.00
2019-04-30T15:36:43.655Z,100115.06
2019-04-30T15:39:02.647Z,100113.44
2019-04-30T15:41:10.380Z,100110.98
2019-04-30T15:43:18.292Z,100108.08
2019-04-30T15:45:25.966Z,100110.63
2019-04-30T15:47:34.340Z,100102.45
2019-04-30T15:49:42.357Z,100097.20
2019-04-30T15:51:50.485Z,100099.36
2019-04-30T15:53:58.379Z,100094.16
2019-04-30T15:56:06.165Z,100094.16
2019-04-30T15:58:20.161Z,100092.69
2019-04-30T16:00:31.285Z,100090.17
2019-04-30T16:02:56.893Z,100091.59
2019-04-30T16:05:11.325Z,100088.28
2019-04-30T16:07:19.675Z,100082.10
2019-04-30T16:09:33.214Z,100087.78
2019-04-30T16:11:49.190Z,100091.73
2019-04-30T16:14:13.759Z,100082.64
2019-04-30T16:16:21.652Z,100089.11
2019-04-30T16:18:35.703Z,100086.88
2019-04-30T16:20:43.575Z,100090.52
2019-04-30T16:22:51.238Z,100086.23
2019-04-30T16:25:00.608Z,100085.33
2019-04-30T16:27:09.238Z,100088.13
2019-04-30T16:29:17.196Z,100092.92
2019-04-30T16:31:25.079Z,100085.73
2019-04-30T16:33:32.711Z,100082.35
2019-04-30T16:35:40.378Z,100083.64
2019-04-30T16:37:49.624Z,100090.94
2019-04-30T16:39:57.416Z,100088.90
2019-04-30T16:42:05.199Z,100083.56
2019-04-30T16:44:12.875Z,100087.20
2019-04-30T16:46:20.595Z,100079.81
2019-04-30T16:48:28.999Z,100083.00
2019-04-30T16:50:36.765Z,100087.38
2019-04-30T16:52:44.320Z,100080.20
2019-04-30T16:54:52.026Z,100081.61
2019-04-30T16:57:04.167Z,100078.95
2019-04-30T16:59:10.915Z,100079.20
2019-04-30T17:01:18.587Z,100080.20
2019-04-30T17:03:36.127Z,100082.20
2019-04-30T17:05:52.285Z,100077.79
2019-04-30T17:08:33.882Z,100078.86
2019-04-30T17:10:56.658Z,100078.78
2019-04-30T17:13:29.361Z,100076.99
2019-04-30T17:15:37.781Z,100075.98
2019-04-30T17:17:45.684Z,100076.16
2019-04-30T17:19:53.105Z,100077.73
2019-04-30T17:22:00.997Z,100073.09
2019-04-30T17:24:08.875Z,100067.55
2019-04-30T17:26:16.452Z,100083.47
2019-04-30T17:28:24.073Z,100077.05
2019-04-30T17:30:31.686Z,100079.57
2019-04-30T17:32:39.562Z,100077.98
2019-04-30T17:34:49.170Z,100084.10
2019-04-30T17:36:56.407Z,100084.75
2019-04-30T17:39:04.333Z,100075.33
2019-04-30T17:41:12.217Z,100083.95
2019-04-30T17:43:20.063Z,100085.34
2019-04-30T17:45:29.196Z,100089.67
2019-04-30T17:47:36.882Z,100080.42
2019-04-30T17:49:44.812Z,100087.91
2019-04-30T17:51:52.546Z,100090.38
2019-04-30T17:54:14.218Z,100092.27
2019-04-30T17:56:21.792Z,100095.38
2019-04-30T17:58:29.522Z,100096.52
2019-04-30T18:00:39.066Z,100102.94
2019-04-30T18:02:46.997Z,100104.87
2019-04-30T18:04:54.568Z,100103.92
2019-04-30T18:07:02.747Z,100102.49
2019-04-30T18:09:11.238Z,100103.83
2019-04-30T18:11:20.063Z,100111.44
2019-04-30T18:13:27.708Z,100109.98
2019-04-30T18:15:35.687Z,100099.95
2019-04-30T18:17:45.973Z,100108.16
2019-04-30T18:20:10.951Z,100104.42
2019-04-30T18:22:33.333Z,100113.72
2019-04-30T18:24:56.035Z,100109.95
2019-04-30T18:27:09.717Z,100120.35
2019-04-30T18:29:17.600Z,100110.67
2019-04-30T18:31:25.521Z,100118.52
2019-04-30T18:33:33.230Z,100117.43
2019-04-30T18:35:42.058Z,100116.81
2019-04-30T18:37:49.872Z,100124.02
2019-04-30T18:40:00.032Z,100128.95
2019-04-30T18:42:10.765Z,100121.61
2019-04-30T18:44:16.519Z,100127.46
2019-04-30T18:46:24.369Z,100129.70
2019-04-30T18:48:32.922Z,100130.78
2019-04-30T18:50:41.000Z,100131.13
2019-04-30T18:52:50.679Z,100137.03
2019-04-30T18:54:59.482Z,100130.74
2019-04-30T18:57:07.492Z,100133.00
2019-04-30T18:59:15.375Z,100126.72
2019-04-30T19:01:23.308Z,100133.05
2019-04-30T19:03:30.875Z,100130.98
2019-04-30T19:05:40.399Z,100130.16
2019-04-30T19:07:59.080Z,100124.25
2019-04-30T19:10:20.436Z,100127.88
2019-04-30T19:12:43.657Z,100125.91
2019-04-30T19:15:16.187Z,100126.00
2019-04-30T19:17:46.880Z,100128.31
2019-04-30T19:20:15.501Z,100128.97
2019-04-30T19:22:23.599Z,100127.14
2019-04-30T19:24:31.388Z,100122.19
2019-04-30T19:26:39.376Z,100133.22
2019-04-30T19:28:49.181Z,100132.09
2019-04-30T19:30:58.795Z,100127.47
2019-04-30T19:33:06.148Z,100134.16
2019-04-30T19:35:13.931Z,100131.81
2019-04-30T19:37:21.576Z,100132.48
2019-04-30T19:39:32.366Z,100125.47
2019-04-30T19:41:39.297Z,100130.98
2019-04-30T19:43:47.217Z,100121.81
2019-04-30T19:45:55.392Z,100120.06
2019-04-30T19:48:02.871Z,100118.68
2019-04-30T19:50:13.887Z,100121.77
2019-04-30T19:52:20.606Z,100113.24
2019-04-30T19:54:29.374Z,100117.72
2019-04-30T19:56:38.833Z,100118.54
2019-04-30T19:58:59.155Z,100113.67
2019-04-30T20:00:56.090Z,100114.52
2019-04-30T20:03:03.986Z,100114.70
2019-04-30T20:05:11.883Z,100110.98
2019-04-30T20:07:19.685Z,100116.73
2019-04-30T20:09:29.143Z,100113.75
2019-04-30T20:11:37.151Z,100110.39
2019-04-30T20:13:45.167Z,100114.89
2019-04-30T20:15:53.124Z,100106.34
2019-04-30T20:18:01.200Z,100105.59
2019-04-30T20:20:09.462Z,100107.89
2019-04-30T20:22:19.421Z,100103.52
2019-04-30T20:24:27.099Z,100099.94
2019-04-30T20:26:34.887Z,100095.13
2019-04-30T20:28:42.768Z,100093.90
2019-04-30T20:30:50.923Z,100095.70
2019-04-30T20:32:59.401Z,100093.38
2019-04-30T20:35:09.759Z,100097.55
2019-04-30T20:37:19.520Z,100092.06
2019-04-30T20:39:35.901Z,100085.84
2019-04-30T20:41:43.557Z,100086.41
2019-04-30T20:43:51.339Z,100081.33
2019-04-30T20:46:00.751Z,100078.98
2019-04-30T20:48:09.020Z,100075.02
2019-04-30T20:50:16.923Z,100072.67
2019-04-30T20:52:24.667Z,100074.94
2019-04-30T20:54:32.446Z,100077.86
2019-04-30T20:56:40.383Z,100074.38
2019-04-30T20:58:55.622Z,100077.89
2019-04-30T21:01:04.057Z,100079.39
2019-04-30T21:03:09.550Z,100078.36
2019-04-30T21:05:16.880Z,100083.84
2019-04-30T21:07:24.714Z,100076.66
2019-04-30T21:09:32.469Z,100076.75
2019-04-30T21:11:40.613Z,100081.95
2019-04-30T21:13:49.106Z,100069.86
2019-04-30T21:15:56.987Z,100069.30
2019-04-30T21:18:05.024Z,100072.33
2019-04-30T21:20:13.209Z,100065.25
2019-04-30T21:22:22.889Z,100069.20
2019-04-30T21:24:30.405Z,100064.77
2019-04-30T21:26:38.222Z,100063.25
2019-04-30T21:28:46.109Z,100058.73
2019-04-30T21:30:54.086Z,100067.22
2019-04-30T21:33:18.965Z,100064.19
2019-04-30T21:35:50.701Z,100063.63
2019-04-30T21:37:59.030Z,100065.09
2019-04-30T21:40:09.725Z,100069.61
2019-04-30T21:42:17.639Z,100065.65
2019-04-30T21:44:25.502Z,100062.53
2019-04-30T21:46:33.070Z,100058.98
2019-04-30T21:48:40.937Z,100055.38
2019-04-30T21:50:49.726Z,100054.26
2019-04-30T21:52:59.290Z,100051.47
2019-04-30T21:55:09.318Z,100051.41
2019-04-30T21:57:17.090Z,100055.11
2019-04-30T21:59:25.027Z,100051.61
2019-04-30T22:01:33.327Z,100053.33
2019-04-30T22:03:41.526Z,100050.90
2019-04-30T22:05:49.365Z,100048.27
2019-04-30T22:07:59.157Z,100052.98
2019-04-30T22:10:07.117Z,100050.39
2019-04-30T22:12:14.789Z,100048.69
2019-04-30T22:14:22.676Z,100050.49
2019-04-30T22:16:30.442Z,100055.03
2019-04-30T22:18:38.165Z,100052.49
2019-04-30T22:20:45.844Z,100051.73
2019-04-30T22:22:53.591Z,100050.77
2019-04-30T22:25:01.258Z,100054.47
2019-04-30T22:27:08.815Z,100050.52
2019-04-30T22:29:16.403Z,100051.81
2019-04-30T22:31:23.913Z,100052.37
2019-04-30T22:33:31.513Z,100038.37
2019-04-30T22:36:02.877Z,100038.89
2019-04-30T22:38:12.164Z,100034.53
2019-04-30T22:40:19.945Z,100033.81
2019-04-30T22:42:34.787Z,100031.80
2019-04-30T22:44:42.310Z,100021.16
2019-04-30T22:46:50.058Z,100023.73
2019-04-30T22:48:57.714Z,100018.69
2019-04-30T22:51:05.394Z,100018.17
2019-04-30T22:53:13.047Z,100016.56
2019-04-30T22:55:20.600Z,100019.70
2019-04-30T22:57:28.375Z,100009.39
2019-04-30T22:59:35.912Z,100015.97
2019-04-30T23:02:01.965Z,100006.47
2019-04-30T23:04:13.410Z,100003.11
2019-04-30T23:06:21.194Z,100006.98
2019-04-30T23:08:29.086Z,100004.75
2019-04-30T23:10:36.935Z,100004.13
2019-04-30T23:12:44.618Z,99993.78
2019-04-30T23:14:52.342Z,99993.48
2019-04-30T23:17:00.247Z,99991.11
2019-04-30T23:19:07.968Z,99982.98
2019-04-30T23:21:15.599Z,99984.39
2019-04-30T23:23:23.339Z,99980.91
2019-04-30T23:25:30.999Z,99984.63
2019-04-30T23:27:38.532Z,99977.58
2019-04-30T23:29:46.213Z,99974.20
2019-04-30T23:31:53.991Z,99978.09
2019-04-30T23:34:01.561Z,99973.38
2019-04-30T23:36:09.129Z,99975.61
2019-04-30T23:38:16.934Z,99980.75
2019-04-30T23:40:28.287Z,99976.07
2019-04-30T23:42:36.163Z,99972.79
2019-04-30T23:44:43.793Z,99970.91
2019-04-30T23:46:51.517Z,99968.18
2019-04-30T23:48:59.231Z,99971.45
2019-04-30T23:51:06.857Z,99965.81
2019-04-30T23:53:14.522Z,99964.48
2019-04-30T23:55:22.162Z,99955.75
2019-04-30T23:57:29.881Z,99962.33
2019-04-30T23:59:37.602Z,99949.27
